Latest Weather Observations for Sydney Olympic Park

IDN60801

Issued at 8:35 pm EST Wednesday 16 April 2014 (issued every 30 minutes, with the page automatically refreshed every 10 minutes)

About weather observations | Map of weather stations | Latest weather observations for NSW | Other Formats
Station Details ID: 066212 Name: SYDNEY OLYMPIC PARK AWS (ARCHERY CENTRE) Lat: -33.83 Lon: 151.07 Height: 4.0 m
Data from the previous 72 hours. | See also: Recent months at Sydney Olympic Park
Date/Time
EST
Temp
°C
App
Temp
°C
Dew
Point
Rel
Hum
%
Delta-T
°C
Wind Press
QNH
hPa
Press
MSL
hPa
Rain
since 9 am
mm
Dir
 
Spd
km/h
Gust
km/h
Spd
kts
Gust
kts
16/08:30pm 16.1 16.4 14.5 90 0.9 W 6 7 3 4 - - 0.0
16/08:00pm 16.2 17.5 14.0 87 1.2 WNW 0 0 0 0 - - 0.0
16/07:30pm 17.7 17.9 14.2 80 2.0 WSW 6 9 3 5 - - 0.0
16/07:00pm 18.3 18.2 14.0 76 2.5 SSW 7 15 4 8 - - 0.0
16/06:30pm 18.6 18.4 13.7 73 2.8 S 7 13 4 7 - - 0.0
16/06:00pm 18.9 17.5 13.3 70 3.2 S 13 20 7 11 - - 0.0
16/05:30pm 19.2 18.3 13.6 70 3.2 S 11 20 6 11 - - 0.0
16/05:00pm 19.9 18.1 13.4 66 3.7 SSE 15 24 8 13 - - 0.0
16/04:30pm 20.5 17.8 13.0 62 4.3 S 19 30 10 16 - - 0.0
16/04:00pm 21.2 18.9 12.9 59 4.7 SSE 17 26 9 14 - - 0.0
16/03:30pm 21.5 19.5 12.6 57 5.0 S 15 26 8 14 - - 0.0
16/03:00pm 21.3 19.6 13.7 62 4.4 SSE 15 20 8 11 - - 0.0
16/02:30pm 20.7 19.2 13.2 62 4.3 SSE 13 19 7 10 - - 0.0
16/02:00pm 22.1 21.1 15.7 67 3.8 SSE 15 20 8 11 - - 0.0
16/01:30pm 21.3 19.6 13.7 62 4.4 SSE 15 24 8 13 - - 0.0
16/01:00pm 20.1 18.0 13.6 66 3.7 S 17 28 9 15 - - 0.0
16/12:30pm 20.9 19.6 13.8 64 4.1 S 13 20 7 11 - - 0.0
16/12:00pm 20.7 19.5 13.9 65 3.9 SSW 13 20 7 11 - - 0.0
16/11:30am 21.1 20.1 14.7 67 3.8 S 13 20 7 11 - - 0.0
16/11:00am 21.0 20.3 14.2 65 4.0 S 11 17 6 9 - - 0.0
16/10:30am 20.8 20.2 14.5 67 3.7 SW 11 20 6 11 - - 0.0
16/10:00am 19.6 18.0 12.8 65 3.8 SW 13 26 7 14 - - 0.0
16/09:30am 19.6 17.8 13.3 67 3.6 SW 15 26 8 14 - - 0.0
16/09:00am 18.4 17.5 13.7 74 2.7 WSW 11 17 6 9 - - 2.4
16/08:30am 16.9 15.6 12.6 76 2.4 WSW 11 17 6 9 - - 2.4
16/08:00am 17.4 16.8 13.5 78 2.2 WSW 9 13 5 7 - - 2.4
16/07:30am 15.9 15.7 13.7 87 1.2 W 7 15 4 8 - - 2.4
16/07:00am 14.0 14.8 13.7 98 0.2 WNW 2 7 1 4 - - 2.4
16/06:30am 13.2 12.9 12.7 97 0.3 WNW 6 9 3 5 - - 2.4
16/06:00am 13.4 13.9 12.9 97 0.3 WNW 2 6 1 3 - - 2.4
16/05:30am 13.5 14.4 13.0 97 0.3 CALM 0 2 0 1 - - 2.4
16/05:00am 13.6 14.6 13.3 98 0.2 CALM 0 0 0 0 - - 2.4
16/04:30am 13.7 14.7 13.1 96 0.3 W 0 0 0 0 - - 2.4
16/04:00am 14.2 14.6 13.6 96 0.3 WNW 4 9 2 5 - - 2.4
16/03:30am 14.7 14.6 13.9 95 0.4 WSW 7 11 4 6 - - 2.4
16/03:00am 14.3 14.4 14.0 98 0.2 W 6 9 3 5 - - 2.4
16/02:30am 14.3 15.2 14.0 98 0.2 NW 2 6 1 3 - - 2.4
16/02:00am 14.8 15.1 14.5 98 0.2 W 6 9 3 5 - - 2.4
16/01:30am 14.7 15.0 14.4 98 0.2 W 6 7 3 4 - - 2.4
16/01:00am 15.3 15.8 15.0 98 0.2 WSW 6 7 3 4 - - 2.2
16/12:30am 15.6 17.3 15.3 98 0.2 WSW 0 0 0 0 - - 2.2
16/12:00am 15.8 16.3 15.5 98 0.2 NW 7 11 4 6 - - 2.2
 
Date/Time
EST
Temp
°C
App
Temp
°C
Dew
Point
Rel
Hum
%
Delta-T
°C
Wind Press
QNH
hPa
Press
MSL
hPa
Rain
since 9 am
mm
Dir
 
Spd
km/h
Gust
km/h
Spd
kts
Gust
kts
15/11:39pm 15.9 16.6 15.6 98 0.2 W 6 7 3 4 - - 2.2
15/11:30pm 15.8 16.9 15.5 98 0.2 WSW 4 7 2 4 - - 2.2
15/11:11pm 16.1 16.2 15.5 96 0.3 SSW 9 20 5 11 - - 2.0
15/11:00pm 16.3 16.0 15.5 95 0.5 SSW 11 20 6 11 - - 1.6
15/10:48pm 16.4 16.2 15.6 95 0.5 SSW 11 20 6 11 - - 1.6
15/10:32pm 16.4 16.2 15.6 95 0.5 SW 11 19 6 10 - - 1.6
15/10:30pm 16.5 15.9 15.7 95 0.5 SW 13 20 7 11 - - 1.6
15/10:00pm 16.4 16.3 15.9 97 0.3 WSW 11 19 6 10 - - 1.6
15/09:30pm 16.3 16.2 16.0 98 0.2 WSW 11 15 6 8 - - 1.6
15/09:00pm 16.6 16.5 16.0 96 0.4 SW 11 19 6 10 - - 1.4
15/08:30pm 16.6 16.4 15.8 95 0.5 SW 11 19 6 10 - - 1.2
15/08:00pm 16.8 16.6 15.7 93 0.6 SW 11 19 6 10 - - 1.0
15/07:30pm 16.8 16.2 15.7 93 0.6 SSW 13 20 7 11 - - 1.0
15/07:00pm 16.8 16.2 15.7 93 0.6 SSW 13 22 7 12 - - 1.0
15/06:32pm 16.7 16.3 16.1 96 0.4 SSW 13 24 7 13 - - 0.8
15/06:30pm 16.8 16.0 16.2 96 0.4 SSW 15 26 8 14 - - 0.8
15/06:15pm 17.0 17.1 16.4 96 0.4 S 11 22 6 12 - - 0.8
15/06:11pm 17.1 17.3 16.8 98 0.2 S 11 17 6 9 - - 0.6
15/06:00pm 17.0 16.7 16.4 96 0.4 S 13 26 7 14 - - 0.4
15/05:52pm 17.0 15.2 16.0 94 0.6 S 20 30 11 16 - - 0.4
15/05:30pm 17.2 17.5 16.1 93 0.7 SE 9 13 5 7 - - 0.0
15/05:14pm 17.2 16.3 15.9 92 0.8 SE 15 20 8 11 - - 0.0
15/05:02pm 17.4 15.4 15.6 89 1.1 SSE 20 39 11 21 - - 0.0
15/05:00pm 17.6 15.9 15.8 89 1.1 SSE 19 30 10 16 - - 0.0
15/04:30pm 18.6 18.1 15.8 84 1.7 S 13 26 7 14 - - 0.0
15/04:00pm 18.9 16.8 14.8 77 2.4 SSE 19 30 10 16 - - 0.0
15/03:30pm 20.8 18.3 14.2 66 3.8 S 20 33 11 18 - - 0.0
15/03:00pm 21.3 18.1 11.3 53 5.5 S 19 32 10 17 - - 0.0
15/02:30pm 21.5 18.9 12.1 55 5.3 SSE 17 24 9 13 - - 0.0
15/02:00pm 21.7 19.0 10.2 48 6.3 SSE 15 24 8 13 - - 0.0
15/01:30pm 21.8 19.3 9.7 46 6.5 SSE 13 17 7 9 - - 0.0
15/01:00pm 22.1 19.9 9.3 44 6.9 SSW 11 17 6 9 - - 0.0
15/12:30pm 21.8 20.4 9.7 46 6.5 SSW 7 17 4 9 - - 0.0
15/12:00pm 21.8 19.9 9.0 44 6.8 SW 9 15 5 8 - - 0.0
15/11:30am 20.9 19.1 9.5 48 6.1 S 9 15 5 8 - - 0.0
15/11:00am 20.8 18.5 9.1 47 6.2 SSW 11 17 6 9 - - 0.0
15/10:30am 19.9 17.5 8.6 48 5.9 WSW 11 19 6 10 - - 0.0
15/10:00am 19.6 17.8 9.5 52 5.4 SSW 9 15 5 8 - - 0.0
15/09:30am 19.1 17.2 10.4 57 4.7 W 11 17 6 9 - - 0.0
15/09:00am 19.2 18.4 11.7 62 4.1 W 7 15 4 8 - - 0.2
15/08:30am 17.7 16.6 11.9 69 3.2 W 9 17 5 9 - - 0.2
15/08:00am 16.3 14.0 10.4 68 3.1 WSW 13 20 7 11 - - 0.2
15/07:30am 14.9 14.0 11.5 80 1.8 W 7 11 4 6 - - 0.2
15/07:00am 13.0 12.6 11.2 89 0.9 WNW 4 9 2 5 - - 0.2
15/06:30am 13.6 12.7 11.3 86 1.2 W 7 13 4 7 - - 0.2
15/06:00am 13.6 12.7 11.5 87 1.1 W 7 11 4 6 - - 0.2
15/05:30am 13.6 12.4 11.7 88 1.0 W 9 15 5 8 - - 0.2
15/05:00am 13.6 12.7 11.5 87 1.1 W 7 11 4 6 - - 0.2
15/04:30am 13.8 13.0 11.7 87 1.1 W 7 11 4 6 - - 0.2
15/04:00am 13.8 13.5 11.5 86 1.2 W 4 9 2 5 - - 0.2
15/03:30am 14.5 13.9 11.8 84 1.5 W 6 13 3 7 - - 0.2
15/03:00am 14.9 14.4 12.2 84 1.5 W 6 13 3 7 - - 0.2
15/02:30am 15.3 14.2 11.9 80 1.8 W 9 15 5 8 - - 0.2
15/02:00am 15.7 14.6 12.1 79 2.0 WSW 9 15 5 8 - - 0.2
15/01:30am 15.4 15.5 12.7 84 1.5 WNW 4 7 2 4 - - 0.2
15/01:00am 15.7 15.8 12.6 82 1.7 W 4 9 2 5 - - 0.2
15/12:30am 15.7 16.3 13.0 84 1.5 WNW 2 9 1 5 - - 0.2
15/12:00am 16.5 16.0 12.1 75 2.4 WSW 6 9 3 5 - - 0.2
 
Date/Time
EST
Temp
°C
App
Temp
°C
Dew
Point
Rel
Hum
%
Delta-T
°C
Wind Press
QNH
hPa
Press
MSL
hPa
Rain
since 9 am
mm
Dir
 
Spd
km/h
Gust
km/h
Spd
kts
Gust
kts
14/11:30pm 16.5 16.1 12.5 77 2.2 W 6 11 3 6 - - 0.2
14/11:00pm 17.0 16.5 12.7 76 2.4 WSW 7 13 4 7 - - 0.2
14/10:30pm 17.4 17.0 13.1 76 2.4 W 7 13 4 7 - - 0.2
14/10:00pm 17.1 17.1 14.2 83 1.7 WNW 7 9 4 5 - - 0.2
14/09:30pm 17.1 17.8 14.6 85 1.4 WSW 4 9 2 5 - - 0.2
14/09:00pm 17.2 17.3 13.9 81 1.9 SW 6 11 3 6 - - 0.2
14/08:30pm 17.0 17.1 13.9 82 1.8 SW 6 13 3 7 - - 0.2
14/08:00pm 17.2 17.3 14.5 84 1.6 SSW 7 13 4 7 - - 0.2
14/07:30pm 16.9 17.4 14.9 88 1.2 SW 6 13 3 7 - - 0.2
14/07:15pm 16.5 16.8 14.9 90 0.9 WSW 7 11 4 6 - - 0.2
14/07:00pm 16.7 15.7 14.5 87 1.3 SSW 13 24 7 13 - - 0.2
14/06:58pm 16.8 15.7 14.3 85 1.4 SSW 13 24 7 13 - - 0.0
14/06:30pm 18.0 16.3 13.7 76 2.4 SSW 15 24 8 13 - - 0.0
14/06:00pm 18.2 17.3 13.7 75 2.6 SSW 11 15 6 8 - - 0.0
14/05:30pm 18.3 16.9 13.4 73 2.8 S 13 20 7 11 - - 0.0
14/05:00pm 19.0 18.0 13.4 70 3.2 SSW 11 15 6 8 - - 0.0
14/04:30pm 19.2 17.2 13.8 71 3.1 S 17 26 9 14 - - 0.0
14/04:00pm 19.5 18.4 14.3 72 3.0 S 13 24 7 13 - - 0.0
14/03:30pm 19.5 18.0 14.1 71 3.1 S 15 22 8 12 - - 0.0
14/03:00pm 19.2 17.8 14.5 74 2.7 S 15 24 8 13 - - 0.0
14/02:30pm 19.2 17.3 14.2 73 2.9 S 17 26 9 14 - - 0.0
14/02:00pm 19.2 16.7 14.2 73 2.9 S 20 30 11 16 - - 0.0
14/01:30pm 18.9 16.2 14.6 76 2.5 SSE 22 32 12 17 - - 0.0
14/01:00pm 19.0 18.0 15.7 81 2.0 S 15 24 8 13 - - 0.0
14/12:57pm 18.8 18.1 15.3 80 2.1 S 13 24 7 13 - - 0.0
14/12:30pm 18.0 16.0 15.4 85 1.5 SSE 20 33 11 18 - - 0.0
14/12:27pm 18.1 16.0 15.2 83 1.7 SSE 20 33 11 18 - - 0.0
14/12:00pm 19.9 17.9 13.8 68 3.5 S 17 24 9 13 - - 0.0
14/11:30am 19.3 17.3 13.9 71 3.1 S 17 24 9 13 - - 0.0
14/11:00am 19.9 17.8 13.6 67 3.6 S 17 28 9 15 - - 0.0
14/10:30am 18.9 16.5 13.7 72 3.0 S 19 26 10 14 - - 0.0
14/10:00am 18.7 16.8 12.9 69 3.3 SSW 15 24 8 13 - - 0.0
14/09:30am 18.4 16.9 11.9 66 3.6 SW 11 20 6 11 - - 0.0
14/09:00am 17.5 15.3 9.4 59 4.2 W 11 15 6 8 - - 0.2
14/08:30am 17.2 15.1 9.9 62 3.8 W 11 17 6 9 - - 0.2
14/08:00am 15.5 13.7 9.4 67 3.1 WNW 9 15 5 8 - - 0.2
14/07:30am 14.9 12.7 9.3 69 2.9 W 11 17 6 9 - - 0.2
14/07:00am 13.5 11.8 9.7 78 1.9 WNW 9 11 5 6 - - 0.2
14/06:30am 12.9 11.2 9.7 81 1.6 WNW 9 13 5 7 - - 0.2
14/06:00am 13.2 11.5 10.0 81 1.6 WNW 9 13 5 7 - - 0.2
14/05:30am 13.0 11.9 10.5 85 1.3 W 7 11 4 6 - - 0.2
14/05:00am 13.0 12.1 10.7 86 1.2 W 6 9 3 5 - - 0.2
14/04:30am 13.4 12.6 11.1 86 1.2 W 6 11 3 6 - - 0.2
14/04:00am 13.8 13.0 11.1 84 1.4 WSW 6 9 3 5 - - 0.2
14/03:30am 14.2 12.9 11.2 82 1.6 SW 9 15 5 8 - - 0.2
14/03:00am 14.7 13.5 11.7 82 1.6 WSW 9 17 5 9 - - 0.2
14/02:30am 14.9 13.8 11.9 82 1.6 WSW 9 15 5 8 - - 0.2
14/02:00am 15.0 14.3 12.0 82 1.6 W 7 11 4 6 - - 0.2
14/01:30am 15.2 14.5 12.0 81 1.7 W 7 11 4 6 - - 0.2
14/01:00am 15.2 14.5 12.1 82 1.7 W 7 11 4 6 - - 0.2
14/12:30am 16.0 15.3 12.0 77 2.2 W 7 9 4 5 - - 0.2
14/12:00am 16.4 15.6 11.8 74 2.5 W 7 11 4 6 - - 0.2
 
Date/Time
EST
Temp
°C
App
Temp
°C
Dew
Point
Rel
Hum
%
Delta-T
°C
Wind Press
QNH
hPa
Press
MSL
hPa
Rain
since 9 am
mm
Dir
 
Spd
km/h
Gust
km/h
Spd
kts
Gust
kts
13/11:30pm 16.6 16.0 12.2 75 2.4 W 7 11 4 6 - - 0.2
13/11:00pm 16.7 15.9 11.8 73 2.7 W 7 11 4 6 - - 0.2
13/10:30pm 16.3 16.0 13.2 82 1.7 WNW 7 9 4 5 - - 0.2
13/10:00pm 16.5 16.1 12.3 76 2.3 WNW 6 9 3 5 - - 0.2
13/09:30pm 17.0 16.5 11.9 72 2.8 W 6 7 3 4 - - 0.2
13/09:00pm 17.7 17.0 11.3 66 3.5 W 6 9 3 5 - - 0.2

Other Formats:

Comma delimited format used in spreadsheet applications
http://www.bom.gov.au/fwo/IDN60801/IDN60801.95765.axf

JavaScript Object Notation format (JSON) in row-major order
http://www.bom.gov.au/fwo/IDN60801/IDN60801.95765.json